Cottonwood, AZ

6:41 PM MST on April 26, 2017 (GMT -0700)
ME6330 | | Change Station

Elev 3365 ft 34.75 °N, 112.03 °W | Updated 45 minutes ago

Clear
Clear
79.0 °F
Feels Like 78 °F
N
3.0
Wind Variable Wind from WSW

Today
High -- | Low -- °F
--% Chance of Precip.
Yesterday
High -- | Low -- °F
Precip. -- in
Pressure 29.84 in
Visibility 10.0 miles
Clouds Clear
Heat Index 78 °F
Dew Point 32 °F
Humidity 18%
Rainfall 0.00 in
Snow Depth Not available.
5:42 AM 7:09 PM
New Moon, 0% visible
METAR KSEZ 270135Z AUTO 25012G16KT 210V270 10SM CLR 21/M02 A2984 RMK AO2
Pressure 29.84 in
Visibility 10.0 miles
Clouds Clear
Heat Index 78 °F
Dew Point 32 °F
Humidity 18%
Rainfall 0.00 in
Snow Depth Not available.
5:42 AM 7:09 PM
New Moon, 0% visible
METAR KSEZ 270135Z AUTO 25012G16KT 210V270 10SM CLR 21/M02 A2984 RMK AO2

Get Severe Weather Alerts

Thanks for signing up!

Be on the lookout for a verification email in your inbox.

You'll start receiving the daily forecast at 8 AM.

×

10-Day Weather Forecast

Almanac

Astronomy

Apr. 26, 2017 Rise Set
Actual Time
Civil Twilight
Nautical Twilight
Astronomical Twilight
Moon
Length of Visible Light
Length of Day
Tomorrow will be .
, % of the Moon is Illuminated

Today's Extremes

State Highs State Lows

Community

WunderPhotos

WunderBlog® & News

Nearby

Air Quality

  Air Quality AQ Index Pollutant
Not available.

Snow Depth

Station Depth Elevation

Earthquake Activity

City Distance Mag. Time & Date
Minimum magnitude displayed is 2.5.

Coastal Water Temperatures

Place Temperature

Stations

Nearby Weather Stations

Station Location Temp. Windchill Dew Point Humidity Wind Precip. Elev Updated Type
                   

Watches & Warnings

There are currently no watches in effect.